Southwest Florida International Airport
KRSW : rendu visible

Aérodrome :











RETROUVEZ-NOUS SUR...

 
LOGIN :

S'inscrire | Disclaimer

   EN    FR    IT 

 









Légende :    VFR   VFR Marginal   IFR   IFR Intensif   IFR Très Intensif
Visi : 
Plafond : 
>= 8 km
>= 3000ft
5 à 8 km
1000 à 3000 ft
1500m à 5 km
500 à 1000 ft
800 à 1500m
200 à 500 ft
< 800m
< 200 ft
Symboles :   Orages  Brouillard  Fortes neiges  Fortes précipitations  Vent > 20 kt






- Altitude de l'aérodrome : 30 ft
- Code IATA : RSW


KRSW - Southwest Florida International

DERNIER METAR :
  • 271253Z 19008KT 10SM CLR 27/25 A2995 RMK AO2 SLP140 T02720250

METARs EXPIRÉS :
  • 271210Z 19005KT 9SM CLR 26/25 A2994 RMK AO2 T02610250
  • 271153Z 15005KT 8SM BKN006 26/24 A2994 RMK AO2 SLP134 T02560244 10256 20244 51007
  • 271053Z 13004KT 6SM BR SCT007 SCT025 24/24 A2992 RMK AO2 SLP129 T02440244
  • 271044Z 13005KT 7SM SCT007 SCT030 25/24 A2992 RMK AO2 T02500244

TAF KRSW
Valide du 27 à 12h jusqu'au 28 à 12h UTC


271132Z 2712/2812 13004KT P6SM SCT007 SCT025
TEMPO 2712/2714 BKN025
FM271400 21008KT P6SM SCT030 SCT250
FM271600 23010KT P6SM VCTS SCT035CB SCT250
FM272200 24008KT P6SM SCT040 SCT250
FM280100 VRB03KT P6SM SCT250
FIR KZMA / Amérique du Nord



MET'MAP, la Météo Aéronautique d'un coup d'oeil ! - Copyright ORBIFLY Décembre 2007 - Disclaimer

ORBIFLY MET'MAP TEAM :

Programmation & Développement : Alexandra Zaïnal
Sur une idée originale de : Baudouin d'Aumeries
Assistance à la programmation : Marc-Olivier Méhu
Soutien technique & logistique : Manuel Goepfert

Contact : metmap@orbifly.com




SOURCES & CREDITS :

   NOAA       Earth
Advisory